createdAt,value
2024-01-21T00:00:28.458Z,99784.72
2024-01-21T00:03:17.889Z,99781.31
2024-01-21T00:06:06.031Z,99788.19
2024-01-21T00:08:53.687Z,99789.06
2024-01-21T00:11:41.154Z,99784.78
2024-01-21T00:14:28.786Z,99786.50
2024-01-21T00:17:18.181Z,99773.59
2024-01-21T00:20:08.608Z,99764.16
2024-01-21T00:22:56.401Z,99765.00
2024-01-21T00:25:43.962Z,99760.72
2024-01-21T00:28:31.441Z,99757.28
2024-01-21T00:31:19.003Z,99753.00
2024-01-21T00:34:06.527Z,99746.13
2024-01-21T00:36:55.465Z,99742.72
2024-01-21T00:39:43.140Z,99738.44
2024-01-21T00:42:30.670Z,99734.09
2024-01-21T00:45:18.417Z,99733.28
2024-01-21T00:48:07.949Z,99736.69
2024-01-21T00:50:56.111Z,99726.38
2024-01-21T00:53:46.038Z,99729.00
2024-01-21T00:56:33.824Z,99726.44
2024-01-21T00:59:21.330Z,99721.28
2024-01-21T01:02:09.170Z,99724.72
2024-01-21T01:04:57.130Z,99718.75
2024-01-21T01:07:44.743Z,99717.88
2024-01-21T01:10:33.463Z,99713.59
2024-01-21T01:13:21.043Z,99710.16
2024-01-21T01:16:09.264Z,99711.03
2024-01-21T01:18:56.877Z,99696.44
2024-01-21T01:21:44.347Z,99701.59
2024-01-21T01:24:32.061Z,99708.47
2024-01-21T01:27:21.046Z,99698.16
2024-01-21T01:30:10.513Z,99700.75
2024-01-21T01:32:58.128Z,99704.22
2024-01-21T01:35:45.730Z,99700.75
2024-01-21T01:38:33.237Z,99702.47
2024-01-21T01:41:21.572Z,99690.47
2024-01-21T01:44:10.468Z,99681.88
2024-01-21T01:46:58.449Z,99689.63
2024-01-21T01:49:46.196Z,99694.78
2024-01-21T01:52:34.085Z,99690.50
2024-01-21T01:55:22.197Z,99687.09
2024-01-21T01:58:09.980Z,99677.63
2024-01-21T02:00:59.895Z,99667.31
2024-01-21T02:03:48.967Z,99671.63
2024-01-21T02:06:36.936Z,99673.34
2024-01-21T02:09:24.758Z,99659.63
2024-01-21T02:12:15.636Z,99657.06
2024-01-21T02:15:03.960Z,99652.78
2024-01-21T02:17:53.118Z,99664.81
2024-01-21T02:20:40.709Z,99661.41
2024-01-21T02:23:30.136Z,99658.81
2024-01-21T02:26:18.046Z,99654.50
2024-01-21T02:29:05.629Z,99656.25
2024-01-21T02:31:54.217Z,99656.25
2024-01-21T02:34:41.760Z,99659.72
2024-01-21T02:37:29.266Z,99658.84
2024-01-21T02:40:18.357Z,99656.28
2024-01-21T02:43:08.240Z,99656.28
2024-01-21T02:45:55.740Z,99651.13
2024-01-21T02:48:43.249Z,99645.97
2024-01-21T02:51:31.901Z,99643.41
2024-01-21T02:54:19.680Z,99640.81
2024-01-21T02:57:08.713Z,99630.50
2024-01-21T02:59:56.382Z,99635.69
2024-01-21T03:02:44.104Z,99632.22
2024-01-21T03:05:32.095Z,99639.13
2024-01-21T03:08:19.392Z,99632.25
2024-01-21T03:11:07.261Z,99624.53
2024-01-21T03:13:56.376Z,99623.69
2024-01-21T03:16:44.117Z,99622.81
2024-01-21T03:19:31.893Z,99626.25
2024-01-21T03:22:19.621Z,99620.22
2024-01-21T03:25:08.026Z,99610.78
2024-01-21T03:27:55.977Z,99614.22
2024-01-21T03:30:45.333Z,99607.34
2024-01-21T03:33:33.377Z,99614.22
2024-01-21T03:36:20.990Z,99610.81
2024-01-21T03:39:08.897Z,99617.66
2024-01-21T03:41:56.927Z,99616.78
2024-01-21T03:44:44.655Z,99604.75
2024-01-21T03:47:33.881Z,99606.47
2024-01-21T03:50:21.937Z,99607.34
2024-01-21T03:53:09.373Z,99605.66
2024-01-21T03:55:56.754Z,99600.53
2024-01-21T03:58:44.356Z,99596.25
2024-01-21T04:01:32.070Z,99590.22
2024-01-21T04:04:20.968Z,99585.94
2024-01-21T04:07:08.628Z,99585.09
2024-01-21T04:09:56.447Z,99579.06
2024-01-21T04:12:44.084Z,99591.13
2024-01-21T04:15:31.625Z,99579.94
2024-01-21T04:18:19.600Z,99572.22
2024-01-21T04:21:08.551Z,99580.84
2024-01-21T04:23:56.329Z,99571.38
2024-01-21T04:26:43.857Z,99570.53
2024-01-21T04:29:32.034Z,99570.53
2024-01-21T04:32:20.180Z,99577.41
2024-01-21T04:35:09.642Z,99573.94
2024-01-21T04:38:00.469Z,99576.53
2024-01-21T04:40:49.809Z,99571.38
2024-01-21T04:43:37.140Z,99573.97
2024-01-21T04:46:24.748Z,99563.66
2024-01-21T04:49:12.209Z,99559.38
2024-01-21T04:52:01.078Z,99567.97
2024-01-21T04:54:50.179Z,99564.53
2024-01-21T04:57:40.401Z,99565.38
2024-01-21T05:00:28.110Z,99567.09
2024-01-21T05:03:15.727Z,99557.66
2024-01-21T05:06:04.311Z,99563.63
2024-01-21T05:08:51.782Z,99559.34
2024-01-21T05:11:40.983Z,99558.47
2024-01-21T05:14:28.522Z,99562.81
2024-01-21T05:17:16.036Z,99555.09
2024-01-21T05:20:04.297Z,99549.09
2024-01-21T05:22:52.575Z,99541.38
2024-01-21T05:25:40.494Z,99552.53
2024-01-21T05:28:29.565Z,99546.50
2024-01-21T05:31:17.649Z,99551.66
2024-01-21T05:34:05.570Z,99565.41
2024-01-21T05:36:53.757Z,99562.84
2024-01-21T05:39:41.512Z,99560.28
2024-01-21T05:42:29.112Z,99561.97
2024-01-21T05:45:17.942Z,99560.28
2024-01-21T05:48:06.697Z,99556.84
2024-01-21T05:50:54.586Z,99563.72
2024-01-21T05:53:44.560Z,99563.72
2024-01-21T05:56:31.799Z,99562.84
2024-01-21T05:59:21.173Z,99568.88
2024-01-21T06:02:11.964Z,99574.00
2024-01-21T06:05:00.173Z,99580.00
2024-01-21T06:07:47.612Z,99586.03
2024-01-21T06:10:35.006Z,99590.31
2024-01-21T06:13:22.487Z,99598.03
2024-01-21T06:16:10.341Z,99592.91
2024-01-21T06:18:59.559Z,99582.59
2024-01-21T06:21:47.628Z,99575.72
2024-01-21T06:24:40.322Z,99574.84
2024-01-21T06:27:27.829Z,99569.66
2024-01-21T06:30:18.671Z,99568.75
2024-01-21T06:33:07.476Z,99565.22
2024-01-21T06:35:56.602Z,99563.44
2024-01-21T06:38:44.388Z,99571.97
2024-01-21T06:41:31.963Z,99573.72
2024-01-21T06:44:19.867Z,99576.31
2024-01-21T06:47:07.329Z,99580.59
2024-01-21T06:49:54.984Z,99568.56
2024-01-21T06:52:44.216Z,99569.38
2024-01-21T06:55:32.134Z,99566.75
2024-01-21T06:58:20.173Z,99573.63
2024-01-21T07:01:08.402Z,99572.75
2024-01-21T07:03:56.473Z,99571.88
2024-01-21T07:06:44.393Z,99573.56
2024-01-21T07:09:33.969Z,99568.31
2024-01-21T07:12:21.702Z,99563.00
2024-01-21T07:15:11.058Z,99567.13
2024-01-21T07:17:58.688Z,99558.41
2024-01-21T07:20:46.371Z,99554.84
2024-01-21T07:23:33.922Z,99564.13
2024-01-21T07:26:24.562Z,99560.38
2024-01-21T07:29:14.361Z,99558.34
2024-01-21T07:32:02.053Z,99558.09
2024-01-21T07:34:49.726Z,99566.41
2024-01-21T07:37:37.757Z,99567.81
2024-01-21T07:40:25.478Z,99571.84
2024-01-21T07:43:14.277Z,99571.53
2024-01-21T07:46:02.192Z,99578.97
2024-01-21T07:48:49.684Z,99579.63
2024-01-21T07:51:37.322Z,99588.97
2024-01-21T07:54:25.159Z,99598.34
2024-01-21T07:57:13.313Z,99590.47
2024-01-21T08:00:04.196Z,99581.03
2024-01-21T08:02:51.940Z,99577.69
2024-01-21T08:05:39.960Z,99566.44
2024-01-21T08:08:27.427Z,99565.53
2024-01-21T08:11:15.148Z,99562.78
2024-01-21T08:14:02.782Z,99558.19
2024-01-21T08:16:51.617Z,99556.31
2024-01-21T08:19:39.823Z,99555.25
2024-01-21T08:22:27.583Z,99552.34
2024-01-21T08:25:15.299Z,99542.59
2024-01-21T08:28:03.828Z,99542.28
2024-01-21T08:30:51.742Z,99541.25
2024-01-21T08:33:41.006Z,99548.81
2024-01-21T08:36:29.129Z,99550.38
2024-01-21T08:39:16.612Z,99552.78
2024-01-21T08:42:04.655Z,99562.13
2024-01-21T08:44:52.827Z,99554.19
2024-01-21T08:47:40.995Z,99562.56
2024-01-21T08:50:30.031Z,99565.81
2024-01-21T08:53:17.613Z,99576.78
2024-01-21T08:56:06.036Z,99575.72
2024-01-21T08:58:54.560Z,99568.53
2024-01-21T09:01:42.409Z,99576.00
2024-01-21T09:04:29.930Z,99574.78
2024-01-21T09:07:19.319Z,99577.91
2024-01-21T09:10:10.232Z,99565.59
2024-01-21T09:12:58.038Z,99568.13
2024-01-21T09:15:45.564Z,99560.31
2024-01-21T09:18:33.363Z,99564.63
2024-01-21T09:21:27.425Z,99564.53
2024-01-21T09:24:22.686Z,99554.00
2024-01-21T09:27:10.426Z,99556.53
2024-01-21T09:29:57.753Z,99555.50
2024-01-21T09:32:45.390Z,99557.84
2024-01-21T09:35:32.968Z,99571.25
2024-01-21T09:38:22.725Z,99590.69
2024-01-21T09:41:27.884Z,99597.94
2024-01-21T09:44:15.640Z,99595.59
2024-01-21T09:47:04.353Z,99593.38
2024-01-21T09:49:53.199Z,99593.84
2024-01-21T09:52:40.669Z,99584.75
2024-01-21T09:55:28.164Z,99583.59
2024-01-21T09:58:18.568Z,99578.22
2024-01-21T10:01:07.714Z,99582.44
2024-01-21T10:03:56.805Z,99577.00
2024-01-21T10:06:45.363Z,99579.41
2024-01-21T10:09:35.152Z,99587.97
2024-01-21T10:12:25.895Z,99569.69
2024-01-21T10:15:16.525Z,99569.25
2024-01-21T10:18:05.089Z,99560.25
2024-01-21T10:20:54.333Z,99547.81
2024-01-21T10:23:43.639Z,99547.53
2024-01-21T10:26:31.267Z,99556.06
2024-01-21T10:29:18.834Z,99548.63
2024-01-21T10:32:10.490Z,99549.25
2024-01-21T10:34:58.807Z,99545.38
2024-01-21T10:37:46.899Z,99550.50
2024-01-21T10:40:34.878Z,99539.94
2024-01-21T10:43:24.353Z,99548.59
2024-01-21T10:46:12.461Z,99549.28
2024-01-21T10:49:02.330Z,99541.94
2024-01-21T10:51:54.173Z,99552.78
2024-01-21T10:54:44.055Z,99549.28
2024-01-21T10:57:31.662Z,99557.13
2024-01-21T11:00:20.785Z,99553.75
2024-01-21T11:03:26.480Z,99552.94
2024-01-21T11:06:17.040Z,99564.03
2024-01-21T11:09:09.264Z,99566.03
2024-01-21T11:11:57.530Z,99569.97
2024-01-21T11:14:45.456Z,99549.69
2024-01-21T11:17:34.888Z,99540.19
2024-01-21T11:20:27.693Z,99549.66
2024-01-21T11:23:19.793Z,99551.34
2024-01-21T11:26:07.654Z,99560.50
2024-01-21T11:28:55.560Z,99572.41
2024-01-21T11:31:43.119Z,99579.47
2024-01-21T11:34:39.510Z,99563.72
2024-01-21T11:37:27.679Z,99547.84
2024-01-21T11:40:16.744Z,99554.00
2024-01-21T11:43:04.883Z,99562.63
2024-01-21T11:45:52.706Z,99555.38
2024-01-21T11:48:40.224Z,99543.03
2024-01-21T11:51:27.883Z,99553.38
2024-01-21T11:54:17.097Z,99564.03
2024-01-21T11:57:07.031Z,99575.50
2024-01-21T11:59:56.371Z,99578.59
2024-01-21T12:02:44.556Z,99579.41
2024-01-21T12:05:32.709Z,99573.19
2024-01-21T12:08:20.612Z,99568.38
2024-01-21T12:11:09.502Z,99565.44
2024-01-21T12:13:58.647Z,99557.59
2024-01-21T12:16:51.535Z,99551.28
2024-01-21T12:19:39.680Z,99543.31
2024-01-21T12:22:39.258Z,99533.63
2024-01-21T12:25:27.652Z,99536.25
2024-01-21T12:28:15.297Z,99536.31
2024-01-21T12:31:04.555Z,99530.47
2024-01-21T12:33:53.006Z,99519.06
2024-01-21T12:36:46.082Z,99516.22
2024-01-21T12:39:35.430Z,99509.53
2024-01-21T12:42:23.356Z,99502.75
2024-01-21T12:45:12.968Z,99500.53
2024-01-21T12:48:02.015Z,99502.38
2024-01-21T12:50:49.545Z,99508.38
2024-01-21T12:53:36.996Z,99506.22
2024-01-21T12:56:26.066Z,99504.91
2024-01-21T12:59:14.858Z,99492.81
2024-01-21T13:02:02.717Z,99479.84
2024-01-21T13:04:51.737Z,99473.22
2024-01-21T13:07:39.737Z,99468.38
2024-01-21T13:10:27.544Z,99461.91
2024-01-21T13:13:15.068Z,99462.63
2024-01-21T13:16:03.337Z,99466.69
2024-01-21T13:18:51.249Z,99458.81
2024-01-21T13:21:40.958Z,99450.97
2024-01-21T13:24:28.812Z,99450.88
2024-01-21T13:27:27.763Z,99460.66
2024-01-21T13:30:33.434Z,99449.88
2024-01-21T13:33:23.619Z,99463.69
2024-01-21T13:36:11.348Z,99440.28
2024-01-21T13:39:00.980Z,99450.84
2024-01-21T13:41:48.625Z,99427.75
2024-01-21T13:44:36.301Z,99422.78
2024-01-21T13:47:24.011Z,99428.13
2024-01-21T13:50:11.844Z,99426.22
2024-01-21T13:53:00.951Z,99419.41
2024-01-21T13:55:50.340Z,99424.81
2024-01-21T13:58:37.940Z,99440.78
2024-01-21T14:01:26.053Z,99438.66
2024-01-21T14:04:13.799Z,99431.84
2024-01-21T14:07:01.990Z,99423.94
2024-01-21T14:09:49.979Z,99422.81
2024-01-21T14:12:39.497Z,99429.09
2024-01-21T14:15:27.516Z,99438.44
2024-01-21T14:18:15.173Z,99437.16
2024-01-21T14:21:03.098Z,99429.97
2024-01-21T14:23:50.524Z,99438.97
2024-01-21T14:26:42.142Z,99427.03
2024-01-21T14:29:37.765Z,99431.38
2024-01-21T14:32:25.521Z,99434.38
2024-01-21T14:35:14.102Z,99441.94
2024-01-21T14:38:02.060Z,99450.34
2024-01-21T14:40:52.158Z,99435.59
2024-01-21T14:43:39.987Z,99446.56
2024-01-21T14:46:28.994Z,99457.75
2024-01-21T14:49:17.189Z,99448.38
2024-01-21T14:52:07.008Z,99461.81
2024-01-21T14:54:55.580Z,99456.72
2024-01-21T14:57:45.475Z,99467.34
2024-01-21T15:00:34.142Z,99467.34
2024-01-21T15:03:23.058Z,99472.75
2024-01-21T15:06:11.805Z,99472.31
2024-01-21T15:09:00.069Z,99472.75
2024-01-21T15:11:47.805Z,99468.13
2024-01-21T15:14:41.608Z,99469.38
2024-01-21T15:17:31.089Z,99467.97
2024-01-21T15:20:20.380Z,99457.84
2024-01-21T15:23:09.500Z,99470.38
2024-01-21T15:26:01.011Z,99474.19
2024-01-21T15:28:48.881Z,99480.59
2024-01-21T15:31:36.774Z,99488.91
2024-01-21T15:34:24.604Z,99494.53
2024-01-21T15:37:13.803Z,99483.66
2024-01-21T15:40:01.441Z,99473.75
2024-01-21T15:42:49.370Z,99479.38
2024-01-21T15:45:36.799Z,99471.94
2024-01-21T15:48:24.311Z,99468.78
2024-01-21T15:51:14.100Z,99462.34
2024-01-21T15:54:03.434Z,99466.34
2024-01-21T15:56:51.058Z,99465.88
2024-01-21T15:59:38.689Z,99475.53
2024-01-21T16:02:26.651Z,99469.69
2024-01-21T16:05:15.292Z,99469.25
2024-01-21T16:08:03.325Z,99482.66
2024-01-21T16:10:52.157Z,99493.53
2024-01-21T16:13:40.520Z,99483.47
2024-01-21T16:16:29.285Z,99494.97
2024-01-21T16:19:17.463Z,99498.75
2024-01-21T16:22:06.401Z,99494.78
2024-01-21T16:24:54.205Z,99503.88
2024-01-21T16:27:43.417Z,99506.81
2024-01-21T16:30:32.019Z,99501.09
2024-01-21T16:33:23.673Z,99496.28
2024-01-21T16:36:11.795Z,99502.59
2024-01-21T16:39:00.273Z,99500.34
2024-01-21T16:41:47.817Z,99503.94
2024-01-21T16:44:36.982Z,99507.56
2024-01-21T16:47:24.530Z,99508.59
2024-01-21T16:50:12.622Z,99505.84
2024-01-21T16:53:09.796Z,99508.38
2024-01-21T16:55:57.612Z,99510.84
2024-01-21T16:58:45.150Z,99509.53
2024-01-21T17:01:36.788Z,99512.50
2024-01-21T17:04:25.145Z,99509.66
2024-01-21T17:07:13.251Z,99511.47
2024-01-21T17:10:01.539Z,99509.72
2024-01-21T17:12:49.242Z,99522.94
2024-01-21T17:15:36.737Z,99526.50
2024-01-21T17:18:40.070Z,99536.03
2024-01-21T17:21:28.000Z,99535.97
2024-01-21T17:24:15.582Z,99546.41
2024-01-21T17:27:03.781Z,99549.03
2024-01-21T17:29:51.994Z,99547.84
2024-01-21T17:32:40.026Z,99552.78
2024-01-21T17:35:29.378Z,99547.41
2024-01-21T17:38:19.055Z,99541.03
2024-01-21T17:41:06.943Z,99548.09
2024-01-21T17:43:54.361Z,99553.25
2024-01-21T17:46:43.097Z,99554.72
2024-01-21T17:49:31.183Z,99539.66
2024-01-21T17:52:20.059Z,99549.16
2024-01-21T17:55:08.230Z,99549.06
2024-01-21T17:57:55.748Z,99548.06
2024-01-21T18:00:44.739Z,99547.09
2024-01-21T18:03:32.896Z,99545.28
2024-01-21T18:06:22.122Z,99541.66
2024-01-21T18:09:13.782Z,99544.94
2024-01-21T18:12:08.500Z,99544.72
2024-01-21T18:14:56.498Z,99546.28
2024-01-21T18:17:44.243Z,99537.53
2024-01-21T18:20:32.213Z,99541.72
2024-01-21T18:23:19.907Z,99544.16
2024-01-21T18:26:09.014Z,99541.59
2024-01-21T18:29:09.806Z,99546.81
2024-01-21T18:32:06.720Z,99533.69
2024-01-21T18:34:55.557Z,99528.53
2024-01-21T18:37:43.818Z,99523.44
2024-01-21T18:40:31.732Z,99519.81
2024-01-21T18:43:20.839Z,99522.41
2024-01-21T18:46:08.734Z,99519.81
2024-01-21T18:48:56.452Z,99520.63
2024-01-21T18:51:44.184Z,99517.97
2024-01-21T18:54:33.889Z,99517.97
2024-01-21T18:57:22.000Z,99509.22
2024-01-21T19:00:12.996Z,99514.47
2024-01-21T19:03:00.975Z,99506.81
2024-01-21T19:05:48.569Z,99496.53
2024-01-21T19:08:35.930Z,99511.53
2024-01-21T19:11:23.897Z,99499.38
2024-01-21T19:14:11.419Z,99498.81
2024-01-21T19:17:00.358Z,99494.63
2024-01-21T19:19:47.844Z,99485.94
2024-01-21T19:22:35.521Z,99477.91
2024-01-21T19:25:23.216Z,99478.72
2024-01-21T19:28:10.625Z,99475.31
2024-01-21T19:30:58.277Z,99469.25
2024-01-21T19:33:48.016Z,99458.06
2024-01-21T19:36:35.937Z,99449.56
2024-01-21T19:39:24.568Z,99456.72
2024-01-21T19:42:12.297Z,99443.00
2024-01-21T19:44:59.931Z,99438.69
2024-01-21T19:47:47.651Z,99439.50
2024-01-21T19:50:36.552Z,99434.16
2024-01-21T19:53:26.466Z,99438.34
2024-01-21T19:56:14.315Z,99438.97
2024-01-21T19:59:01.955Z,99445.00
2024-01-21T20:01:49.527Z,99438.63
2024-01-21T20:04:37.047Z,99436.88
2024-01-21T20:07:25.895Z,99422.06
2024-01-21T20:10:13.834Z,99420.28
2024-01-21T20:13:01.811Z,99416.16
2024-01-21T20:15:49.533Z,99411.06
2024-01-21T20:18:39.410Z,99403.34
2024-01-21T20:21:27.508Z,99406.94
2024-01-21T20:24:16.604Z,99407.00
2024-01-21T20:27:04.206Z,99401.81
2024-01-21T20:29:53.289Z,99411.66
2024-01-21T20:32:41.006Z,99405.59
2024-01-21T20:35:28.826Z,99401.38
2024-01-21T20:38:16.361Z,99415.53
2024-01-21T20:41:09.650Z,99412.41
2024-01-21T20:43:57.613Z,99415.53
2024-01-21T20:46:45.152Z,99409.25
2024-01-21T20:49:32.870Z,99409.72
2024-01-21T20:52:20.343Z,99404.88
2024-01-21T20:55:08.767Z,99406.09
2024-01-21T20:57:58.081Z,99403.81
2024-01-21T21:00:57.065Z,99402.34
2024-01-21T21:03:53.837Z,99407.00
2024-01-21T21:06:41.761Z,99402.81
2024-01-21T21:09:29.477Z,99396.78
2024-01-21T21:12:17.917Z,99394.50
2024-01-21T21:15:09.151Z,99397.50
2024-01-21T21:17:58.584Z,99395.09
2024-01-21T21:20:46.783Z,99377.94
2024-01-21T21:23:34.790Z,99386.88
2024-01-21T21:26:22.591Z,99384.44
2024-01-21T21:29:11.201Z,99380.25
2024-01-21T21:32:00.208Z,99385.19
2024-01-21T21:34:49.429Z,99385.97
2024-01-21T21:37:36.834Z,99383.81
2024-01-21T21:40:24.594Z,99380.78
2024-01-21T21:43:12.469Z,99372.69
2024-01-21T21:46:00.071Z,99360.22
2024-01-21T21:48:49.737Z,99354.94
2024-01-21T21:51:38.133Z,99355.56
2024-01-21T21:54:27.912Z,99343.16
2024-01-21T21:57:16.368Z,99338.69
2024-01-21T22:00:05.375Z,99346.41
2024-01-21T22:02:54.624Z,99345.72
2024-01-21T22:05:44.667Z,99333.66
2024-01-21T22:08:34.093Z,99331.66
2024-01-21T22:11:23.166Z,99328.91
2024-01-21T22:14:12.537Z,99330.59
2024-01-21T22:17:00.176Z,99328.06
2024-01-21T22:19:48.128Z,99325.25
2024-01-21T22:22:38.418Z,99319.03
2024-01-21T22:25:26.178Z,99313.78
2024-01-21T22:28:14.098Z,99307.59
2024-01-21T22:31:01.620Z,99312.69
2024-01-21T22:33:49.263Z,99296.03
2024-01-21T22:36:36.985Z,99297.38
2024-01-21T22:39:26.002Z,99290.19
2024-01-21T22:42:13.772Z,99290.19
2024-01-21T22:45:01.599Z,99298.84
2024-01-21T22:47:49.719Z,99283.22
2024-01-21T22:50:37.883Z,99282.34
2024-01-21T22:53:25.290Z,99277.09
2024-01-21T22:56:14.092Z,99271.88
2024-01-21T22:59:01.773Z,99262.16
2024-01-21T23:01:50.504Z,99245.66
2024-01-21T23:04:38.726Z,99242.03
2024-01-21T23:07:26.441Z,99234.97
2024-01-21T23:10:14.448Z,99224.38
2024-01-21T23:13:03.318Z,99222.66
2024-01-21T23:15:51.282Z,99209.59
2024-01-21T23:18:38.825Z,99210.38
2024-01-21T23:21:26.679Z,99194.69
2024-01-21T23:24:14.190Z,99200.78
2024-01-21T23:27:01.948Z,99198.06
2024-01-21T23:29:50.893Z,99188.38
2024-01-21T23:32:38.797Z,99176.97
2024-01-21T23:35:26.680Z,99168.16
2024-01-21T23:38:14.055Z,99168.09
2024-01-21T23:41:01.617Z,99159.31
2024-01-21T23:43:49.207Z,99161.22
2024-01-21T23:46:37.904Z,99152.91
2024-01-21T23:49:25.251Z,99142.94
2024-01-21T23:52:12.752Z,99146.00
2024-01-21T23:55:00.289Z,99141.91
2024-01-21T23:57:47.779Z,99137.75
